sensor_id;sensor_type;location;lat;lon;timestamp;temperature;humidity
32640;DHT22;19049;52.524;11.468;2023-10-31T15:13:55;17.80;94.50
32640;DHT22;19049;52.524;11.468;2023-10-31T15:16:21;17.40;95.60
32640;DHT22;19049;52.524;11.468;2023-10-31T15:18:46;17.10;95.70
32640;DHT22;19049;52.524;11.468;2023-10-31T15:21:12;16.80;95.90
32640;DHT22;19049;52.524;11.468;2023-10-31T15:23:38;16.50;96.10
32640;DHT22;19049;52.524;11.468;2023-10-31T15:26:04;16.20;96.40
32640;DHT22;19049;52.524;11.468;2023-10-31T15:28:30;15.90;96.70
32640;DHT22;19049;52.524;11.468;2023-10-31T15:30:55;15.80;97.00
32640;DHT22;19049;52.524;11.468;2023-10-31T15:33:21;15.50;97.50
32640;DHT22;19049;52.524;11.468;2023-10-31T15:35:47;15.40;97.90
32640;DHT22;19049;52.524;11.468;2023-10-31T15:38:12;15.20;98.10
32640;DHT22;19049;52.524;11.468;2023-10-31T15:40:40;15.00;98.50
32640;DHT22;19049;52.524;11.468;2023-10-31T15:43:06;14.90;98.70
32640;DHT22;19049;52.524;11.468;2023-10-31T15:45:32;14.70;98.90
32640;DHT22;19049;52.524;11.468;2023-10-31T15:48:06;14.70;99.20
32640;DHT22;19049;52.524;11.468;2023-10-31T15:50:34;14.50;99.30
32640;DHT22;19049;52.524;11.468;2023-10-31T15:52:59;14.50;99.60
32640;DHT22;19049;52.524;11.468;2023-10-31T15:55:25;14.50;99.70
32640;DHT22;19049;52.524;11.468;2023-10-31T15:57:51;14.40;99.80
32640;DHT22;19049;52.524;11.468;2023-10-31T16:00:17;14.30;99.90
32640;DHT22;19049;52.524;11.468;2023-10-31T16:02:43;14.30;99.90
32640;DHT22;19049;52.524;11.468;2023-10-31T16:05:09;14.20;99.90
32640;DHT22;19049;52.524;11.468;2023-10-31T16:07:35;14.20;99.90
32640;DHT22;19049;52.524;11.468;2023-10-31T16:10:03;14.20;99.90
32640;DHT22;19049;52.524;11.468;2023-10-31T16:12:30;14.20;99.90
32640;DHT22;19049;52.524;11.468;2023-10-31T16:14:55;14.10;99.90
32640;DHT22;19049;52.524;11.468;2023-10-31T16:17:22;14.10;99.90
32640;DHT22;19049;52.524;11.468;2023-10-31T16:19:48;14.00;99.90
32640;DHT22;19049;52.524;11.468;2023-10-31T16:22:13;13.90;99.90
32640;DHT22;19049;52.524;11.468;2023-10-31T16:24:39;13.90;99.90
32640;DHT22;19049;52.524;11.468;2023-10-31T16:27:05;13.90;99.90
32640;DHT22;19049;52.524;11.468;2023-10-31T16:29:31;13.90;99.90
32640;DHT22;19049;52.524;11.468;2023-10-31T16:31:58;13.90;99.90
32640;DHT22;19049;52.524;11.468;2023-10-31T16:34:24;13.90;99.90
32640;DHT22;19049;52.524;11.468;2023-10-31T16:36:50;13.80;99.90
32640;DHT22;19049;52.524;11.468;2023-10-31T16:39:15;13.90;99.90
32640;DHT22;19049;52.524;11.468;2023-10-31T16:41:41;13.90;99.90
32640;DHT22;19049;52.524;11.468;2023-10-31T16:44:07;13.90;99.90
32640;DHT22;19049;52.524;11.468;2023-10-31T16:46:32;13.90;99.90
32640;DHT22;19049;52.524;11.468;2023-10-31T16:48:58;13.90;99.90
32640;DHT22;19049;52.524;11.468;2023-10-31T16:51:23;13.90;99.90
32640;DHT22;19049;52.524;11.468;2023-10-31T16:53:49;13.90;99.90
32640;DHT22;19049;52.524;11.468;2023-10-31T16:56:15;13.90;99.90
32640;DHT22;19049;52.524;11.468;2023-10-31T16:58:42;13.90;99.90
32640;DHT22;19049;52.524;11.468;2023-10-31T17:01:11;13.90;99.90
32640;DHT22;19049;52.524;11.468;2023-10-31T17:03:37;13.80;99.90
32640;DHT22;19049;52.524;11.468;2023-10-31T17:06:04;13.80;99.90
32640;DHT22;19049;52.524;11.468;2023-10-31T17:08:29;13.70;99.90
32640;DHT22;19049;52.524;11.468;2023-10-31T17:10:55;13.70;99.90
32640;DHT22;19049;52.524;11.468;2023-10-31T17:13:20;13.70;99.90
32640;DHT22;19049;52.524;11.468;2023-10-31T17:15:46;13.60;99.90
32640;DHT22;19049;52.524;11.468;2023-10-31T17:18:12;13.60;99.90
32640;DHT22;19049;52.524;11.468;2023-10-31T17:20:40;13.50;99.90
32640;DHT22;19049;52.524;11.468;2023-10-31T17:23:06;13.50;99.90
32640;DHT22;19049;52.524;11.468;2023-10-31T17:25:31;13.40;99.90
32640;DHT22;19049;52.524;11.468;2023-10-31T17:27:57;13.40;99.90
32640;DHT22;19049;52.524;11.468;2023-10-31T17:30:23;13.30;99.90
32640;DHT22;19049;52.524;11.468;2023-10-31T17:32:49;13.30;99.90
32640;DHT22;19049;52.524;11.468;2023-10-31T17:35:14;13.20;99.90
32640;DHT22;19049;52.524;11.468;2023-10-31T17:37:40;13.20;99.90
32640;DHT22;19049;52.524;11.468;2023-10-31T17:40:06;13.10;99.80
32640;DHT22;19049;52.524;11.468;2023-10-31T17:42:34;13.10;99.70
32640;DHT22;19049;52.524;11.468;2023-10-31T17:45:00;13.00;99.30
32640;DHT22;19049;52.524;11.468;2023-10-31T17:47:26;13.00;99.20
32640;DHT22;19049;52.524;11.468;2023-10-31T17:49:51;12.90;99.30
32640;DHT22;19049;52.524;11.468;2023-10-31T17:52:17;12.90;99.30
32640;DHT22;19049;52.524;11.468;2023-10-31T17:54:43;12.80;99.30
32640;DHT22;19049;52.524;11.468;2023-10-31T17:57:10;12.80;99.20
32640;DHT22;19049;52.524;11.468;2023-10-31T17:59:36;12.70;99.00
32640;DHT22;19049;52.524;11.468;2023-10-31T18:02:02;12.70;98.90
32640;DHT22;19049;52.524;11.468;2023-10-31T18:04:29;12.60;98.80
32640;DHT22;19049;52.524;11.468;2023-10-31T18:06:56;12.60;98.80
32640;DHT22;19049;52.524;11.468;2023-10-31T18:09:22;12.60;99.00
32640;DHT22;19049;52.524;11.468;2023-10-31T18:11:48;12.50;99.00
32640;DHT22;19049;52.524;11.468;2023-10-31T18:14:13;12.50;98.90
32640;DHT22;19049;52.524;11.468;2023-10-31T18:16:39;12.50;99.10
32640;DHT22;19049;52.524;11.468;2023-10-31T18:19:05;12.40;99.10
32640;DHT22;19049;52.524;11.468;2023-10-31T18:21:31;12.40;99.00
32640;DHT22;19049;52.524;11.468;2023-10-31T18:23:56;12.40;99.20
32640;DHT22;19049;52.524;11.468;2023-10-31T18:26:22;12.30;99.20
32640;DHT22;19049;52.524;11.468;2023-10-31T18:28:48;12.30;99.20
32640;DHT22;19049;52.524;11.468;2023-10-31T18:31:16;12.30;99.30
32640;DHT22;19049;52.524;11.468;2023-10-31T18:33:42;12.30;99.40
32640;DHT22;19049;52.524;11.468;2023-10-31T18:36:08;12.30;99.30
32640;DHT22;19049;52.524;11.468;2023-10-31T18:38:34;12.30;99.40
32640;DHT22;19049;52.524;11.468;2023-10-31T18:41:03;12.20;99.30
32640;DHT22;19049;52.524;11.468;2023-10-31T18:43:29;12.20;99.40
32640;DHT22;19049;52.524;11.468;2023-10-31T18:45:55;12.20;99.50
32640;DHT22;19049;52.524;11.468;2023-10-31T18:48:20;12.10;99.50
32640;DHT22;19049;52.524;11.468;2023-10-31T18:50:46;12.10;99.60
32640;DHT22;19049;52.524;11.468;2023-10-31T18:53:12;12.10;99.60
32640;DHT22;19049;52.524;11.468;2023-10-31T18:55:38;12.00;99.70
32640;DHT22;19049;52.524;11.468;2023-10-31T18:58:05;12.00;99.80
32640;DHT22;19049;52.524;11.468;2023-10-31T19:00:31;12.00;99.90
32640;DHT22;19049;52.524;11.468;2023-10-31T19:02:56;12.00;99.90
32640;DHT22;19049;52.524;11.468;2023-10-31T19:05:22;11.90;99.90
32640;DHT22;19049;52.524;11.468;2023-10-31T19:07:49;11.90;99.90
32640;DHT22;19049;52.524;11.468;2023-10-31T19:10:14;11.90;99.90
32640;DHT22;19049;52.524;11.468;2023-10-31T19:12:40;11.90;99.90
32640;DHT22;19049;52.524;11.468;2023-10-31T19:15:07;11.90;99.90
32640;DHT22;19049;52.524;11.468;2023-10-31T19:17:32;11.90;99.90
32640;DHT22;19049;52.524;11.468;2023-10-31T19:19:58;11.90;99.90
32640;DHT22;19049;52.524;11.468;2023-10-31T19:22:24;11.90;99.90
32640;DHT22;19049;52.524;11.468;2023-10-31T19:24:50;11.80;99.90
32640;DHT22;19049;52.524;11.468;2023-10-31T19:27:16;11.80;99.90
32640;DHT22;19049;52.524;11.468;2023-10-31T19:29:41;11.80;99.90
32640;DHT22;19049;52.524;11.468;2023-10-31T19:32:07;11.80;99.90
32640;DHT22;19049;52.524;11.468;2023-10-31T19:34:33;11.80;99.90
32640;DHT22;19049;52.524;11.468;2023-10-31T19:36:58;11.80;99.90
32640;DHT22;19049;52.524;11.468;2023-10-31T19:39:25;11.70;99.80
32640;DHT22;19049;52.524;11.468;2023-10-31T19:41:52;11.70;99.90
32640;DHT22;19049;52.524;11.468;2023-10-31T19:44:18;11.60;99.90
32640;DHT22;19049;52.524;11.468;2023-10-31T19:46:44;11.50;99.90
32640;DHT22;19049;52.524;11.468;2023-10-31T19:49:13;11.50;99.90
32640;DHT22;19049;52.524;11.468;2023-10-31T19:51:39;11.40;99.90
32640;DHT22;19049;52.524;11.468;2023-10-31T19:54:05;11.40;99.90
32640;DHT22;19049;52.524;11.468;2023-10-31T19:56:31;11.30;99.90
32640;DHT22;19049;52.524;11.468;2023-10-31T19:58:57;11.30;99.90
32640;DHT22;19049;52.524;11.468;2023-10-31T20:01:23;11.30;99.90
32640;DHT22;19049;52.524;11.468;2023-10-31T20:03:51;11.20;99.90
32640;DHT22;19049;52.524;11.468;2023-10-31T20:06:17;11.20;99.90
32640;DHT22;19049;52.524;11.468;2023-10-31T20:08:43;11.20;99.90
32640;DHT22;19049;52.524;11.468;2023-10-31T20:11:09;11.20;99.90
32640;DHT22;19049;52.524;11.468;2023-10-31T20:13:37;11.20;99.90
32640;DHT22;19049;52.524;11.468;2023-10-31T20:16:04;11.20;99.90
32640;DHT22;19049;52.524;11.468;2023-10-31T20:18:30;11.20;99.90
32640;DHT22;19049;52.524;11.468;2023-10-31T20:20:56;11.20;99.90
32640;DHT22;19049;52.524;11.468;2023-10-31T20:23:22;11.10;99.90
32640;DHT22;19049;52.524;11.468;2023-10-31T20:25:49;11.10;99.90
32640;DHT22;19049;52.524;11.468;2023-10-31T20:28:15;11.10;99.90
32640;DHT22;19049;52.524;11.468;2023-10-31T20:30:41;11.10;99.90
32640;DHT22;19049;52.524;11.468;2023-10-31T20:33:06;11.10;99.90
32640;DHT22;19049;52.524;11.468;2023-10-31T20:35:32;11.10;99.90
32640;DHT22;19049;52.524;11.468;2023-10-31T20:37:58;11.10;99.90
32640;DHT22;19049;52.524;11.468;2023-10-31T20:40:23;11.10;99.90
32640;DHT22;19049;52.524;11.468;2023-10-31T20:42:49;11.10;99.90
32640;DHT22;19049;52.524;11.468;2023-10-31T20:45:15;11.10;99.90
32640;DHT22;19049;52.524;11.468;2023-10-31T20:47:41;11.00;99.90
32640;DHT22;19049;52.524;11.468;2023-10-31T20:50:07;11.00;99.90
32640;DHT22;19049;52.524;11.468;2023-10-31T20:52:34;11.00;99.90
32640;DHT22;19049;52.524;11.468;2023-10-31T20:55:01;11.00;99.90
32640;DHT22;19049;52.524;11.468;2023-10-31T20:57:27;10.90;99.90
32640;DHT22;19049;52.524;11.468;2023-10-31T20:59:52;10.90;99.90
32640;DHT22;19049;52.524;11.468;2023-10-31T21:02:19;10.90;99.90
32640;DHT22;19049;52.524;11.468;2023-10-31T21:04:45;10.90;99.90
32640;DHT22;19049;52.524;11.468;2023-10-31T21:07:11;10.90;99.90
32640;DHT22;19049;52.524;11.468;2023-10-31T21:09:36;10.90;99.90
32640;DHT22;19049;52.524;11.468;2023-10-31T21:12:02;10.90;99.90
32640;DHT22;19049;52.524;11.468;2023-10-31T21:14:28;10.90;99.90
32640;DHT22;19049;52.524;11.468;2023-10-31T21:16:54;10.90;99.90
32640;DHT22;19049;52.524;11.468;2023-10-31T21:19:20;10.90;99.90
32640;DHT22;19049;52.524;11.468;2023-10-31T21:21:45;10.80;99.90
32640;DHT22;19049;52.524;11.468;2023-10-31T21:24:12;10.80;99.90
32640;DHT22;19049;52.524;11.468;2023-10-31T21:26:37;10.80;99.90
32640;DHT22;19049;52.524;11.468;2023-10-31T21:29:03;10.80;99.90
32640;DHT22;19049;52.524;11.468;2023-10-31T21:31:29;10.70;99.90
32640;DHT22;19049;52.524;11.468;2023-10-31T21:33:54;10.70;99.90
32640;DHT22;19049;52.524;11.468;2023-10-31T21:36:20;10.70;99.90
32640;DHT22;19049;52.524;11.468;2023-10-31T21:38:45;10.70;99.90
32640;DHT22;19049;52.524;11.468;2023-10-31T21:41:11;10.70;99.90
32640;DHT22;19049;52.524;11.468;2023-10-31T21:43:37;10.70;99.90
32640;DHT22;19049;52.524;11.468;2023-10-31T21:46:02;10.70;99.90
32640;DHT22;19049;52.524;11.468;2023-10-31T21:48:29;10.70;99.90
32640;DHT22;19049;52.524;11.468;2023-10-31T21:50:55;10.70;99.90
32640;DHT22;19049;52.524;11.468;2023-10-31T21:53:20;10.60;99.90
32640;DHT22;19049;52.524;11.468;2023-10-31T21:55:47;10.70;99.90
32640;DHT22;19049;52.524;11.468;2023-10-31T21:58:13;10.70;99.90
32640;DHT22;19049;52.524;11.468;2023-10-31T22:00:38;10.70;99.90
32640;DHT22;19049;52.524;11.468;2023-10-31T22:03:07;10.70;99.90
32640;DHT22;19049;52.524;11.468;2023-10-31T22:05:33;10.70;99.90
32640;DHT22;19049;52.524;11.468;2023-10-31T22:07:58;10.60;99.90
32640;DHT22;19049;52.524;11.468;2023-10-31T22:10:24;10.60;99.90
32640;DHT22;19049;52.524;11.468;2023-10-31T22:12:53;10.60;99.90
32640;DHT22;19049;52.524;11.468;2023-10-31T22:15:22;10.60;99.90
32640;DHT22;19049;52.524;11.468;2023-10-31T22:17:49;10.60;99.90
32640;DHT22;19049;52.524;11.468;2023-10-31T22:20:15;10.60;99.90
32640;DHT22;19049;52.524;11.468;2023-10-31T22:22:41;10.60;99.90
32640;DHT22;19049;52.524;11.468;2023-10-31T22:25:07;10.60;99.90
32640;DHT22;19049;52.524;11.468;2023-10-31T22:27:33;10.60;99.90
32640;DHT22;19049;52.524;11.468;2023-10-31T22:30:01;10.60;99.90
32640;DHT22;19049;52.524;11.468;2023-10-31T22:32:28;10.60;99.90
32640;DHT22;19049;52.524;11.468;2023-10-31T22:34:53;10.60;99.90
32640;DHT22;19049;52.524;11.468;2023-10-31T22:37:19;10.60;99.90
32640;DHT22;19049;52.524;11.468;2023-10-31T22:39:45;10.60;99.90
32640;DHT22;19049;52.524;11.468;2023-10-31T22:42:10;10.60;99.90
32640;DHT22;19049;52.524;11.468;2023-10-31T22:44:36;10.50;99.90
32640;DHT22;19049;52.524;11.468;2023-10-31T22:47:02;10.50;99.90
32640;DHT22;19049;52.524;11.468;2023-10-31T22:49:28;10.50;99.90
32640;DHT22;19049;52.524;11.468;2023-10-31T22:51:53;10.50;99.90
32640;DHT22;19049;52.524;11.468;2023-10-31T22:54:19;10.50;99.90
32640;DHT22;19049;52.524;11.468;2023-10-31T22:56:45;10.50;99.90
32640;DHT22;19049;52.524;11.468;2023-10-31T22:59:10;10.50;99.90
32640;DHT22;19049;52.524;11.468;2023-10-31T23:01:36;10.50;99.90
32640;DHT22;19049;52.524;11.468;2023-10-31T23:04:02;10.40;99.90
32640;DHT22;19049;52.524;11.468;2023-10-31T23:06:27;10.40;99.90
32640;DHT22;19049;52.524;11.468;2023-10-31T23:08:55;10.40;99.90
32640;DHT22;19049;52.524;11.468;2023-10-31T23:11:21;10.40;99.90
32640;DHT22;19049;52.524;11.468;2023-10-31T23:13:48;10.40;99.90
32640;DHT22;19049;52.524;11.468;2023-10-31T23:16:14;10.40;99.90
32640;DHT22;19049;52.524;11.468;2023-10-31T23:18:39;10.40;99.90
32640;DHT22;19049;52.524;11.468;2023-10-31T23:21:05;10.40;99.90
32640;DHT22;19049;52.524;11.468;2023-10-31T23:23:31;10.40;99.90
32640;DHT22;19049;52.524;11.468;2023-10-31T23:25:56;10.40;99.90
32640;DHT22;19049;52.524;11.468;2023-10-31T23:28:23;10.40;99.90
32640;DHT22;19049;52.524;11.468;2023-10-31T23:30:49;10.40;99.90
32640;DHT22;19049;52.524;11.468;2023-10-31T23:33:14;10.40;99.90
32640;DHT22;19049;52.524;11.468;2023-10-31T23:35:40;10.40;99.90
32640;DHT22;19049;52.524;11.468;2023-10-31T23:38:06;10.40;99.90
32640;DHT22;19049;52.524;11.468;2023-10-31T23:40:32;10.40;99.90
32640;DHT22;19049;52.524;11.468;2023-10-31T23:42:58;10.40;99.90
32640;DHT22;19049;52.524;11.468;2023-10-31T23:45:23;10.40;99.90
32640;DHT22;19049;52.524;11.468;2023-10-31T23:47:49;10.40;99.90
32640;DHT22;19049;52.524;11.468;2023-10-31T23:50:15;10.40;99.90
32640;DHT22;19049;52.524;11.468;2023-10-31T23:52:40;10.40;99.90
32640;DHT22;19049;52.524;11.468;2023-10-31T23:55:06;10.40;99.90
32640;DHT22;19049;52.524;11.468;2023-10-31T23:57:32;10.30;99.90
32640;DHT22;19049;52.524;11.468;2023-10-31T23:59:58;10.40;99.90
